Seattle, Washington
Traffic Map
Current Weather Conditions
Seattle, Washington
Clear
Clear
16°
Feels Like: 16°
Wind Chill: 16° Ceiling: Unl
Heat Index: 16° Visibility: 10mi
Dew Point: 12° Wind: 0mph
Humidity: 75% Direction: ° ()
Pressure: 30.09in Gusts: 0mph
Raw Report DataKBFI 201153Z 00000KT 10SM CLR 16/12 A3009 RMK AO2 SLP189 T01610117 10194 20161 58005
Traffic Incident Summary
Active as of:
Severity:
Category:
InformationThere was an issue retrieving the traffic information for this location. Please try a different location or try again shortly.
Advertisements
Track Severe Weather on mobile